sensor_id;sensor_type;location;lat;lon;timestamp;temperature;humidity
12578;DHT22;6354;51.026;8.968;2022-12-17T00:00:48;-6.60;99.90
12578;DHT22;6354;51.026;8.968;2022-12-17T00:03:34;-6.60;99.90
12578;DHT22;6354;51.026;8.968;2022-12-17T00:06:22;-6.70;99.90
12578;DHT22;6354;51.026;8.968;2022-12-17T00:09:08;-6.70;99.90
12578;DHT22;6354;51.026;8.968;2022-12-17T00:11:54;-6.70;99.90
12578;DHT22;6354;51.026;8.968;2022-12-17T00:14:41;-6.70;99.90
12578;DHT22;6354;51.026;8.968;2022-12-17T00:17:26;-6.70;99.90
12578;DHT22;6354;51.026;8.968;2022-12-17T00:20:12;-6.70;99.90
12578;DHT22;6354;51.026;8.968;2022-12-17T00:22:58;-6.70;99.90
12578;DHT22;6354;51.026;8.968;2022-12-17T00:25:49;-6.70;99.90
12578;DHT22;6354;51.026;8.968;2022-12-17T00:28:35;-6.80;99.90
12578;DHT22;6354;51.026;8.968;2022-12-17T00:31:25;-6.80;99.90
12578;DHT22;6354;51.026;8.968;2022-12-17T00:34:11;-6.80;99.90
12578;DHT22;6354;51.026;8.968;2022-12-17T00:36:56;-6.80;99.90
12578;DHT22;6354;51.026;8.968;2022-12-17T00:39:42;-6.80;99.90
12578;DHT22;6354;51.026;8.968;2022-12-17T00:42:28;-6.80;99.90
12578;DHT22;6354;51.026;8.968;2022-12-17T00:45:14;-6.90;99.90
12578;DHT22;6354;51.026;8.968;2022-12-17T00:48:01;-6.90;99.90
12578;DHT22;6354;51.026;8.968;2022-12-17T00:50:46;-6.90;99.90
12578;DHT22;6354;51.026;8.968;2022-12-17T00:53:32;-7.00;99.90
12578;DHT22;6354;51.026;8.968;2022-12-17T00:56:17;-7.00;99.90
12578;DHT22;6354;51.026;8.968;2022-12-17T00:59:03;-7.00;99.90
12578;DHT22;6354;51.026;8.968;2022-12-17T01:01:49;-7.00;99.90
12578;DHT22;6354;51.026;8.968;2022-12-17T01:04:36;-7.00;99.90
12578;DHT22;6354;51.026;8.968;2022-12-17T01:07:22;-6.90;99.90
12578;DHT22;6354;51.026;8.968;2022-12-17T01:10:08;-6.90;99.90
12578;DHT22;6354;51.026;8.968;2022-12-17T01:12:53;-6.90;99.90
12578;DHT22;6354;51.026;8.968;2022-12-17T01:15:39;-6.90;99.90
12578;DHT22;6354;51.026;8.968;2022-12-17T01:18:25;-6.90;99.90
12578;DHT22;6354;51.026;8.968;2022-12-17T01:21:23;-6.80;99.90
12578;DHT22;6354;51.026;8.968;2022-12-17T01:24:08;-6.80;99.90
12578;DHT22;6354;51.026;8.968;2022-12-17T01:26:54;-6.80;99.90
12578;DHT22;6354;51.026;8.968;2022-12-17T01:29:40;-6.80;99.90
12578;DHT22;6354;51.026;8.968;2022-12-17T01:32:25;-6.80;99.90
12578;DHT22;6354;51.026;8.968;2022-12-17T01:35:10;-6.70;99.90
12578;DHT22;6354;51.026;8.968;2022-12-17T01:37:57;-6.70;99.90
12578;DHT22;6354;51.026;8.968;2022-12-17T01:40:43;-6.70;99.90
12578;DHT22;6354;51.026;8.968;2022-12-17T01:43:31;-6.80;99.90
12578;DHT22;6354;51.026;8.968;2022-12-17T01:46:17;-6.80;99.90
12578;DHT22;6354;51.026;8.968;2022-12-17T01:49:02;-6.90;99.90
12578;DHT22;6354;51.026;8.968;2022-12-17T01:51:50;-6.90;99.90
12578;DHT22;6354;51.026;8.968;2022-12-17T01:54:38;-6.90;99.90
12578;DHT22;6354;51.026;8.968;2022-12-17T01:57:25;-6.90;99.90
12578;DHT22;6354;51.026;8.968;2022-12-17T02:00:13;-6.90;99.90
12578;DHT22;6354;51.026;8.968;2022-12-17T02:02:59;-6.90;99.90
12578;DHT22;6354;51.026;8.968;2022-12-17T02:05:51;-6.90;99.90
12578;DHT22;6354;51.026;8.968;2022-12-17T02:08:45;-6.90;99.90
12578;DHT22;6354;51.026;8.968;2022-12-17T02:11:39;-6.80;99.90
12578;DHT22;6354;51.026;8.968;2022-12-17T02:14:46;-6.80;99.90
12578;DHT22;6354;51.026;8.968;2022-12-17T02:17:37;-6.80;99.90
12578;DHT22;6354;51.026;8.968;2022-12-17T02:20:29;-6.70;99.90
12578;DHT22;6354;51.026;8.968;2022-12-17T02:23:30;-6.80;99.90
12578;DHT22;6354;51.026;8.968;2022-12-17T02:26:34;-6.70;99.90
12578;DHT22;6354;51.026;8.968;2022-12-17T02:29:22;-6.70;99.90
12578;DHT22;6354;51.026;8.968;2022-12-17T02:32:09;-6.80;99.90
12578;DHT22;6354;51.026;8.968;2022-12-17T02:34:57;-6.80;99.90
12578;DHT22;6354;51.026;8.968;2022-12-17T02:37:45;-6.80;99.90
12578;DHT22;6354;51.026;8.968;2022-12-17T02:40:32;-6.80;99.90
12578;DHT22;6354;51.026;8.968;2022-12-17T02:43:24;-6.90;99.90
12578;DHT22;6354;51.026;8.968;2022-12-17T02:46:11;-7.00;99.90
12578;DHT22;6354;51.026;8.968;2022-12-17T02:48:57;-7.00;99.90
12578;DHT22;6354;51.026;8.968;2022-12-17T02:51:43;-7.10;99.90
12578;DHT22;6354;51.026;8.968;2022-12-17T02:54:30;-7.10;99.90
12578;DHT22;6354;51.026;8.968;2022-12-17T02:57:16;-7.20;99.90
12578;DHT22;6354;51.026;8.968;2022-12-17T03:00:07;-7.20;99.90
12578;DHT22;6354;51.026;8.968;2022-12-17T03:02:53;-7.20;99.90
12578;DHT22;6354;51.026;8.968;2022-12-17T03:05:39;-7.20;99.90
12578;DHT22;6354;51.026;8.968;2022-12-17T03:08:30;-7.20;99.90
12578;DHT22;6354;51.026;8.968;2022-12-17T03:11:15;-7.20;99.90
12578;DHT22;6354;51.026;8.968;2022-12-17T03:14:01;-7.20;99.90
12578;DHT22;6354;51.026;8.968;2022-12-17T03:16:48;-7.20;99.90
12578;DHT22;6354;51.026;8.968;2022-12-17T03:19:36;-7.30;99.90
12578;DHT22;6354;51.026;8.968;2022-12-17T03:22:22;-7.30;99.90
12578;DHT22;6354;51.026;8.968;2022-12-17T03:25:07;-7.30;99.90
12578;DHT22;6354;51.026;8.968;2022-12-17T03:27:53;-7.30;99.90
12578;DHT22;6354;51.026;8.968;2022-12-17T03:30:39;-7.30;99.90
12578;DHT22;6354;51.026;8.968;2022-12-17T03:33:25;-7.30;99.90
12578;DHT22;6354;51.026;8.968;2022-12-17T03:36:19;-7.30;99.90
12578;DHT22;6354;51.026;8.968;2022-12-17T03:39:05;-7.30;99.90
12578;DHT22;6354;51.026;8.968;2022-12-17T03:41:51;-7.30;99.90
12578;DHT22;6354;51.026;8.968;2022-12-17T03:44:36;-7.30;99.90
12578;DHT22;6354;51.026;8.968;2022-12-17T03:47:22;-7.30;99.90
12578;DHT22;6354;51.026;8.968;2022-12-17T03:50:09;-7.30;99.90
12578;DHT22;6354;51.026;8.968;2022-12-17T03:52:55;-7.30;99.90
12578;DHT22;6354;51.026;8.968;2022-12-17T03:55:40;-7.30;99.90
12578;DHT22;6354;51.026;8.968;2022-12-17T03:58:26;-7.30;99.90
12578;DHT22;6354;51.026;8.968;2022-12-17T04:01:11;-7.20;99.90
12578;DHT22;6354;51.026;8.968;2022-12-17T04:03:57;-7.20;99.90
12578;DHT22;6354;51.026;8.968;2022-12-17T04:06:44;-7.10;99.90
12578;DHT22;6354;51.026;8.968;2022-12-17T04:09:41;-7.10;99.90
12578;DHT22;6354;51.026;8.968;2022-12-17T04:12:27;-7.00;99.90
12578;DHT22;6354;51.026;8.968;2022-12-17T04:15:13;-6.90;99.90
12578;DHT22;6354;51.026;8.968;2022-12-17T04:17:58;-6.80;99.90
12578;DHT22;6354;51.026;8.968;2022-12-17T04:20:43;-6.80;99.90
12578;DHT22;6354;51.026;8.968;2022-12-17T04:23:30;-6.70;99.90
12578;DHT22;6354;51.026;8.968;2022-12-17T04:26:30;-6.60;99.90
12578;DHT22;6354;51.026;8.968;2022-12-17T04:29:16;-6.60;99.90
12578;DHT22;6354;51.026;8.968;2022-12-17T04:32:01;-6.60;99.90
12578;DHT22;6354;51.026;8.968;2022-12-17T04:34:47;-6.50;99.90
12578;DHT22;6354;51.026;8.968;2022-12-17T04:37:33;-6.60;99.90
12578;DHT22;6354;51.026;8.968;2022-12-17T04:40:19;-6.50;99.90
12578;DHT22;6354;51.026;8.968;2022-12-17T04:43:06;-6.50;99.90
12578;DHT22;6354;51.026;8.968;2022-12-17T04:45:53;-6.40;99.90
12578;DHT22;6354;51.026;8.968;2022-12-17T04:48:38;-6.30;99.90
12578;DHT22;6354;51.026;8.968;2022-12-17T04:51:24;-6.20;99.90
12578;DHT22;6354;51.026;8.968;2022-12-17T04:54:10;-6.10;99.90
12578;DHT22;6354;51.026;8.968;2022-12-17T04:57:09;-6.10;99.90
12578;DHT22;6354;51.026;8.968;2022-12-17T04:59:54;-6.10;99.90
12578;DHT22;6354;51.026;8.968;2022-12-17T05:02:40;-6.20;99.90
12578;DHT22;6354;51.026;8.968;2022-12-17T05:05:26;-6.20;99.90
12578;DHT22;6354;51.026;8.968;2022-12-17T05:08:11;-6.20;99.90
12578;DHT22;6354;51.026;8.968;2022-12-17T05:11:03;-6.20;99.90
12578;DHT22;6354;51.026;8.968;2022-12-17T05:14:04;-6.20;99.90
12578;DHT22;6354;51.026;8.968;2022-12-17T05:16:50;-6.10;99.90
12578;DHT22;6354;51.026;8.968;2022-12-17T05:19:35;-6.20;99.90
12578;DHT22;6354;51.026;8.968;2022-12-17T05:22:21;-6.10;99.90
12578;DHT22;6354;51.026;8.968;2022-12-17T05:25:07;-6.10;99.90
12578;DHT22;6354;51.026;8.968;2022-12-17T05:27:52;-6.00;99.90
12578;DHT22;6354;51.026;8.968;2022-12-17T05:30:40;-6.10;99.90
12578;DHT22;6354;51.026;8.968;2022-12-17T05:33:25;-6.00;99.90
12578;DHT22;6354;51.026;8.968;2022-12-17T05:36:11;-6.00;99.90
12578;DHT22;6354;51.026;8.968;2022-12-17T05:38:57;-6.00;99.90
12578;DHT22;6354;51.026;8.968;2022-12-17T05:41:42;-6.00;99.90
12578;DHT22;6354;51.026;8.968;2022-12-17T05:44:28;-6.00;99.90
12578;DHT22;6354;51.026;8.968;2022-12-17T05:47:23;-6.00;99.90
12578;DHT22;6354;51.026;8.968;2022-12-17T05:50:08;-5.90;99.90
12578;DHT22;6354;51.026;8.968;2022-12-17T05:53:00;-5.90;99.90
12578;DHT22;6354;51.026;8.968;2022-12-17T05:55:48;-5.80;99.90
12578;DHT22;6354;51.026;8.968;2022-12-17T05:58:34;-5.80;99.90
12578;DHT22;6354;51.026;8.968;2022-12-17T06:01:19;-5.80;99.90
12578;DHT22;6354;51.026;8.968;2022-12-17T06:04:07;-5.90;99.90
12578;DHT22;6354;51.026;8.968;2022-12-17T06:06:53;-5.80;99.90
12578;DHT22;6354;51.026;8.968;2022-12-17T06:09:38;-5.80;99.90
12578;DHT22;6354;51.026;8.968;2022-12-17T06:12:24;-5.80;99.90
12578;DHT22;6354;51.026;8.968;2022-12-17T06:15:18;-5.90;99.90
12578;DHT22;6354;51.026;8.968;2022-12-17T06:18:04;-5.80;99.90
12578;DHT22;6354;51.026;8.968;2022-12-17T06:20:51;-5.80;99.90
12578;DHT22;6354;51.026;8.968;2022-12-17T06:23:37;-5.80;99.90
12578;DHT22;6354;51.026;8.968;2022-12-17T06:26:23;-5.90;99.90
12578;DHT22;6354;51.026;8.968;2022-12-17T06:29:09;-6.00;99.90
12578;DHT22;6354;51.026;8.968;2022-12-17T06:31:55;-6.10;99.90
12578;DHT22;6354;51.026;8.968;2022-12-17T06:34:40;-6.10;99.90
12578;DHT22;6354;51.026;8.968;2022-12-17T06:37:27;-6.10;99.90
12578;DHT22;6354;51.026;8.968;2022-12-17T06:40:12;-6.10;99.90
12578;DHT22;6354;51.026;8.968;2022-12-17T06:42:58;-6.00;99.90
12578;DHT22;6354;51.026;8.968;2022-12-17T06:45:44;-6.00;99.90
12578;DHT22;6354;51.026;8.968;2022-12-17T06:48:29;-6.10;99.90
12578;DHT22;6354;51.026;8.968;2022-12-17T06:51:26;-6.20;99.90
12578;DHT22;6354;51.026;8.968;2022-12-17T06:54:13;-6.20;99.90
12578;DHT22;6354;51.026;8.968;2022-12-17T06:56:58;-6.10;99.90
12578;DHT22;6354;51.026;8.968;2022-12-17T06:59:44;-6.10;99.90
12578;DHT22;6354;51.026;8.968;2022-12-17T07:02:29;-6.00;99.90
12578;DHT22;6354;51.026;8.968;2022-12-17T07:05:15;-6.00;99.90
12578;DHT22;6354;51.026;8.968;2022-12-17T07:08:00;-6.10;99.90
12578;DHT22;6354;51.026;8.968;2022-12-17T07:10:50;-6.10;99.90
12578;DHT22;6354;51.026;8.968;2022-12-17T07:13:36;-6.10;99.90
12578;DHT22;6354;51.026;8.968;2022-12-17T07:16:21;-6.10;99.90
12578;DHT22;6354;51.026;8.968;2022-12-17T07:19:07;-6.10;99.90
12578;DHT22;6354;51.026;8.968;2022-12-17T07:21:53;-6.20;99.90
12578;DHT22;6354;51.026;8.968;2022-12-17T07:24:48;-6.20;99.90
12578;DHT22;6354;51.026;8.968;2022-12-17T07:27:35;-6.20;99.90
12578;DHT22;6354;51.026;8.968;2022-12-17T07:30:20;-6.30;99.90
12578;DHT22;6354;51.026;8.968;2022-12-17T07:33:06;-6.40;99.90
12578;DHT22;6354;51.026;8.968;2022-12-17T07:35:53;-6.40;99.90
12578;DHT22;6354;51.026;8.968;2022-12-17T07:38:39;-6.50;99.90
12578;DHT22;6354;51.026;8.968;2022-12-17T07:41:25;-6.50;99.90
12578;DHT22;6354;51.026;8.968;2022-12-17T07:44:12;-6.50;99.90
12578;DHT22;6354;51.026;8.968;2022-12-17T07:46:57;-6.50;99.90
12578;DHT22;6354;51.026;8.968;2022-12-17T07:49:42;-6.60;99.90
12578;DHT22;6354;51.026;8.968;2022-12-17T07:52:28;-6.60;99.90
12578;DHT22;6354;51.026;8.968;2022-12-17T07:55:14;-6.60;99.90
12578;DHT22;6354;51.026;8.968;2022-12-17T07:58:00;-6.60;99.90
12578;DHT22;6354;51.026;8.968;2022-12-17T08:00:47;-6.70;99.90
12578;DHT22;6354;51.026;8.968;2022-12-17T08:03:32;-6.70;99.90
12578;DHT22;6354;51.026;8.968;2022-12-17T08:06:18;-6.70;99.90
12578;DHT22;6354;51.026;8.968;2022-12-17T08:09:04;-6.80;99.90
12578;DHT22;6354;51.026;8.968;2022-12-17T08:11:49;-6.70;99.90
12578;DHT22;6354;51.026;8.968;2022-12-17T08:14:35;-6.70;99.90
12578;DHT22;6354;51.026;8.968;2022-12-17T08:17:24;-6.60;99.90
12578;DHT22;6354;51.026;8.968;2022-12-17T08:20:10;-6.50;99.90
12578;DHT22;6354;51.026;8.968;2022-12-17T08:23:00;-6.50;99.90
12578;DHT22;6354;51.026;8.968;2022-12-17T08:25:45;-6.50;99.90
12578;DHT22;6354;51.026;8.968;2022-12-17T08:28:31;-6.40;99.90
12578;DHT22;6354;51.026;8.968;2022-12-17T08:31:17;-6.40;99.90
12578;DHT22;6354;51.026;8.968;2022-12-17T08:34:07;-6.40;99.90
12578;DHT22;6354;51.026;8.968;2022-12-17T08:36:52;-6.20;99.90
12578;DHT22;6354;51.026;8.968;2022-12-17T08:39:38;-6.20;99.90
12578;DHT22;6354;51.026;8.968;2022-12-17T08:42:23;-6.30;99.90
12578;DHT22;6354;51.026;8.968;2022-12-17T08:45:09;-6.10;99.90
12578;DHT22;6354;51.026;8.968;2022-12-17T08:48:01;-6.10;99.90
12578;DHT22;6354;51.026;8.968;2022-12-17T08:50:48;-6.00;99.90
12578;DHT22;6354;51.026;8.968;2022-12-17T08:53:34;-6.00;99.90
12578;DHT22;6354;51.026;8.968;2022-12-17T08:56:20;-5.90;99.90
12578;DHT22;6354;51.026;8.968;2022-12-17T08:59:05;-5.80;99.90
12578;DHT22;6354;51.026;8.968;2022-12-17T09:01:51;-5.80;99.90
12578;DHT22;6354;51.026;8.968;2022-12-17T09:04:37;-5.80;99.90
12578;DHT22;6354;51.026;8.968;2022-12-17T09:07:24;-5.90;99.90
12578;DHT22;6354;51.026;8.968;2022-12-17T09:10:09;-5.90;99.90
12578;DHT22;6354;51.026;8.968;2022-12-17T09:12:59;-5.80;99.90
12578;DHT22;6354;51.026;8.968;2022-12-17T09:15:50;-5.80;99.90
12578;DHT22;6354;51.026;8.968;2022-12-17T09:18:36;-5.70;99.90
12578;DHT22;6354;51.026;8.968;2022-12-17T09:21:22;-5.70;99.90
12578;DHT22;6354;51.026;8.968;2022-12-17T09:24:10;-5.70;99.90
12578;DHT22;6354;51.026;8.968;2022-12-17T09:26:55;-5.60;99.90
12578;DHT22;6354;51.026;8.968;2022-12-17T09:29:41;-5.60;99.90
12578;DHT22;6354;51.026;8.968;2022-12-17T09:32:27;-5.70;99.90
12578;DHT22;6354;51.026;8.968;2022-12-17T09:35:12;-5.70;99.90
12578;DHT22;6354;51.026;8.968;2022-12-17T09:37:58;-5.60;99.90
12578;DHT22;6354;51.026;8.968;2022-12-17T09:40:48;-5.50;99.90
12578;DHT22;6354;51.026;8.968;2022-12-17T09:43:41;-5.50;99.90
12578;DHT22;6354;51.026;8.968;2022-12-17T09:46:32;-5.40;99.90
12578;DHT22;6354;51.026;8.968;2022-12-17T09:49:25;-5.40;99.90
12578;DHT22;6354;51.026;8.968;2022-12-17T09:52:18;-5.30;99.90
12578;DHT22;6354;51.026;8.968;2022-12-17T09:55:17;-5.30;99.90
12578;DHT22;6354;51.026;8.968;2022-12-17T09:58:19;-5.40;99.90
12578;DHT22;6354;51.026;8.968;2022-12-17T10:01:05;-5.40;99.90
12578;DHT22;6354;51.026;8.968;2022-12-17T10:04:00;-5.40;99.90
12578;DHT22;6354;51.026;8.968;2022-12-17T10:06:55;-5.30;99.90
12578;DHT22;6354;51.026;8.968;2022-12-17T10:09:41;-5.20;99.90
12578;DHT22;6354;51.026;8.968;2022-12-17T10:12:26;-5.20;99.90
12578;DHT22;6354;51.026;8.968;2022-12-17T10:15:14;-5.10;99.90
12578;DHT22;6354;51.026;8.968;2022-12-17T10:18:04;-5.10;99.90
12578;DHT22;6354;51.026;8.968;2022-12-17T10:20:57;-5.00;99.90
12578;DHT22;6354;51.026;8.968;2022-12-17T10:23:43;-5.00;99.90
12578;DHT22;6354;51.026;8.968;2022-12-17T10:26:31;-5.00;99.90
12578;DHT22;6354;51.026;8.968;2022-12-17T10:29:18;-5.00;99.90
12578;DHT22;6354;51.026;8.968;2022-12-17T10:32:19;-4.90;99.90
12578;DHT22;6354;51.026;8.968;2022-12-17T10:35:10;-4.90;99.90
12578;DHT22;6354;51.026;8.968;2022-12-17T10:37:59;-4.80;99.90
12578;DHT22;6354;51.026;8.968;2022-12-17T10:40:44;-4.80;99.90
12578;DHT22;6354;51.026;8.968;2022-12-17T10:43:32;-4.70;99.90
12578;DHT22;6354;51.026;8.968;2022-12-17T10:46:25;-4.70;99.90
12578;DHT22;6354;51.026;8.968;2022-12-17T10:49:24;-4.70;99.90
12578;DHT22;6354;51.026;8.968;2022-12-17T10:52:19;-4.70;99.90
12578;DHT22;6354;51.026;8.968;2022-12-17T10:55:19;-4.60;99.90
12578;DHT22;6354;51.026;8.968;2022-12-17T10:58:12;-4.50;99.90
12578;DHT22;6354;51.026;8.968;2022-12-17T11:00:59;-4.40;99.90
12578;DHT22;6354;51.026;8.968;2022-12-17T11:03:50;-4.40;99.90
12578;DHT22;6354;51.026;8.968;2022-12-17T11:06:39;-4.30;99.90
12578;DHT22;6354;51.026;8.968;2022-12-17T11:09:35;-4.30;99.90
12578;DHT22;6354;51.026;8.968;2022-12-17T11:12:24;-4.30;99.90
12578;DHT22;6354;51.026;8.968;2022-12-17T11:15:18;-4.20;99.90
12578;DHT22;6354;51.026;8.968;2022-12-17T11:18:06;-4.20;99.90
12578;DHT22;6354;51.026;8.968;2022-12-17T11:21:03;-4.20;99.90
12578;DHT22;6354;51.026;8.968;2022-12-17T11:23:52;-4.10;99.90
12578;DHT22;6354;51.026;8.968;2022-12-17T11:26:51;-4.10;99.90
12578;DHT22;6354;51.026;8.968;2022-12-17T11:29:37;-4.10;99.90
12578;DHT22;6354;51.026;8.968;2022-12-17T11:32:42;-4.00;99.90
12578;DHT22;6354;51.026;8.968;2022-12-17T11:35:33;-3.90;99.90
12578;DHT22;6354;51.026;8.968;2022-12-17T11:38:27;-3.90;99.90
12578;DHT22;6354;51.026;8.968;2022-12-17T11:41:22;-3.90;99.90
12578;DHT22;6354;51.026;8.968;2022-12-17T11:44:15;-3.80;99.90
12578;DHT22;6354;51.026;8.968;2022-12-17T11:47:11;-3.80;99.90
12578;DHT22;6354;51.026;8.968;2022-12-17T11:50:05;-3.80;99.90
12578;DHT22;6354;51.026;8.968;2022-12-17T11:52:59;-3.70;99.90
12578;DHT22;6354;51.026;8.968;2022-12-17T11:56:00;-3.70;99.90
12578;DHT22;6354;51.026;8.968;2022-12-17T11:58:52;-3.70;99.90
12578;DHT22;6354;51.026;8.968;2022-12-17T12:01:43;-3.60;99.90
12578;DHT22;6354;51.026;8.968;2022-12-17T12:04:42;-3.60;99.90
12578;DHT22;6354;51.026;8.968;2022-12-17T12:07:39;-3.50;99.90
12578;DHT22;6354;51.026;8.968;2022-12-17T12:10:32;-3.50;99.90
12578;DHT22;6354;51.026;8.968;2022-12-17T12:13:26;-3.40;99.90
12578;DHT22;6354;51.026;8.968;2022-12-17T12:16:23;-3.40;99.90
12578;DHT22;6354;51.026;8.968;2022-12-17T12:19:13;-3.40;99.90
12578;DHT22;6354;51.026;8.968;2022-12-17T12:22:07;-3.40;99.90
12578;DHT22;6354;51.026;8.968;2022-12-17T12:25:18;-3.40;99.90
12578;DHT22;6354;51.026;8.968;2022-12-17T12:28:10;-3.40;99.90
12578;DHT22;6354;51.026;8.968;2022-12-17T12:31:07;-3.30;99.90
12578;DHT22;6354;51.026;8.968;2022-12-17T12:33:59;-3.20;99.90
12578;DHT22;6354;51.026;8.968;2022-12-17T12:36:46;-3.20;99.90
12578;DHT22;6354;51.026;8.968;2022-12-17T12:39:36;-3.30;99.90
12578;DHT22;6354;51.026;8.968;2022-12-17T12:42:28;-3.30;99.90
12578;DHT22;6354;51.026;8.968;2022-12-17T12:45:29;-3.20;99.90
12578;DHT22;6354;51.026;8.968;2022-12-17T12:48:31;-3.20;99.90
12578;DHT22;6354;51.026;8.968;2022-12-17T12:51:23;-3.20;99.90
12578;DHT22;6354;51.026;8.968;2022-12-17T12:54:30;-3.30;99.90
12578;DHT22;6354;51.026;8.968;2022-12-17T12:57:27;-3.30;99.90
12578;DHT22;6354;51.026;8.968;2022-12-17T13:00:37;-3.30;99.90
12578;DHT22;6354;51.026;8.968;2022-12-17T13:03:28;-3.30;99.90
12578;DHT22;6354;51.026;8.968;2022-12-17T13:06:43;-3.30;99.90
12578;DHT22;6354;51.026;8.968;2022-12-17T13:09:29;-3.40;99.90
12578;DHT22;6354;51.026;8.968;2022-12-17T13:12:19;-3.40;99.90
12578;DHT22;6354;51.026;8.968;2022-12-17T13:14:53;-3.50;99.90
12578;DHT22;6354;51.026;8.968;2022-12-17T13:17:29;-3.40;99.90
12578;DHT22;6354;51.026;8.968;2022-12-17T13:22:51;-3.50;99.90
12578;DHT22;6354;51.026;8.968;2022-12-17T13:25:21;-3.50;99.90
12578;DHT22;6354;51.026;8.968;2022-12-17T13:27:50;-3.60;99.90
12578;DHT22;6354;51.026;8.968;2022-12-17T13:30:30;-3.60;99.90
12578;DHT22;6354;51.026;8.968;2022-12-17T13:33:11;-3.60;99.90
12578;DHT22;6354;51.026;8.968;2022-12-17T13:35:51;-3.60;99.90
12578;DHT22;6354;51.026;8.968;2022-12-17T13:38:30;-3.60;99.90
12578;DHT22;6354;51.026;8.968;2022-12-17T13:41:06;-3.60;99.90
12578;DHT22;6354;51.026;8.968;2022-12-17T13:43:42;-3.60;99.90
12578;DHT22;6354;51.026;8.968;2022-12-17T13:46:19;-3.60;99.90
12578;DHT22;6354;51.026;8.968;2022-12-17T13:48:55;-3.60;99.90
12578;DHT22;6354;51.026;8.968;2022-12-17T13:51:26;-3.60;99.90
12578;DHT22;6354;51.026;8.968;2022-12-17T13:53:57;-3.70;99.90
12578;DHT22;6354;51.026;8.968;2022-12-17T13:56:28;-3.70;99.90
12578;DHT22;6354;51.026;8.968;2022-12-17T13:58:58;-3.70;99.90
12578;DHT22;6354;51.026;8.968;2022-12-17T14:01:43;-3.80;99.90
12578;DHT22;6354;51.026;8.968;2022-12-17T14:04:19;-3.80;99.90
12578;DHT22;6354;51.026;8.968;2022-12-17T14:06:48;-3.80;99.90
12578;DHT22;6354;51.026;8.968;2022-12-17T14:09:20;-3.80;99.90
12578;DHT22;6354;51.026;8.968;2022-12-17T14:11:49;-3.80;99.90
12578;DHT22;6354;51.026;8.968;2022-12-17T14:14:36;-3.90;99.90
12578;DHT22;6354;51.026;8.968;2022-12-17T14:17:05;-3.80;99.90
12578;DHT22;6354;51.026;8.968;2022-12-17T14:19:35;-3.80;99.90
12578;DHT22;6354;51.026;8.968;2022-12-17T14:22:04;-3.90;99.90
12578;DHT22;6354;51.026;8.968;2022-12-17T14:24:34;-3.90;99.90
12578;DHT22;6354;51.026;8.968;2022-12-17T14:27:02;-3.90;99.90
12578;DHT22;6354;51.026;8.968;2022-12-17T14:29:31;-3.90;99.90
12578;DHT22;6354;51.026;8.968;2022-12-17T14:32:00;-3.90;99.90
12578;DHT22;6354;51.026;8.968;2022-12-17T14:34:39;-3.90;99.90
12578;DHT22;6354;51.026;8.968;2022-12-17T14:37:16;-3.90;99.90
12578;DHT22;6354;51.026;8.968;2022-12-17T14:39:47;-3.90;99.90
12578;DHT22;6354;51.026;8.968;2022-12-17T14:42:17;-3.90;99.90
12578;DHT22;6354;51.026;8.968;2022-12-17T14:44:54;-3.80;99.90
12578;DHT22;6354;51.026;8.968;2022-12-17T14:47:25;-3.80;99.90
12578;DHT22;6354;51.026;8.968;2022-12-17T14:49:56;-3.90;99.90
12578;DHT22;6354;51.026;8.968;2022-12-17T14:52:37;-4.00;99.90
12578;DHT22;6354;51.026;8.968;2022-12-17T14:55:28;-4.00;99.90
12578;DHT22;6354;51.026;8.968;2022-12-17T14:58:16;-4.10;99.90
12578;DHT22;6354;51.026;8.968;2022-12-17T15:00:46;-4.10;99.90
12578;DHT22;6354;51.026;8.968;2022-12-17T15:03:21;-4.20;99.90
12578;DHT22;6354;51.026;8.968;2022-12-17T15:05:52;-4.30;99.90
12578;DHT22;6354;51.026;8.968;2022-12-17T15:08:21;-4.30;99.90
12578;DHT22;6354;51.026;8.968;2022-12-17T15:10:51;-4.30;99.90
12578;DHT22;6354;51.026;8.968;2022-12-17T15:13:19;-4.40;99.90
12578;DHT22;6354;51.026;8.968;2022-12-17T15:15:47;-4.50;99.90
12578;DHT22;6354;51.026;8.968;2022-12-17T15:18:15;-4.50;99.90
12578;DHT22;6354;51.026;8.968;2022-12-17T15:20:43;-4.70;99.90
12578;DHT22;6354;51.026;8.968;2022-12-17T15:23:17;-4.70;99.90
12578;DHT22;6354;51.026;8.968;2022-12-17T15:25:47;-4.80;99.90
12578;DHT22;6354;51.026;8.968;2022-12-17T15:28:18;-4.90;99.90
12578;DHT22;6354;51.026;8.968;2022-12-17T15:30:47;-4.90;99.90
12578;DHT22;6354;51.026;8.968;2022-12-17T15:33:16;-4.90;99.90
12578;DHT22;6354;51.026;8.968;2022-12-17T15:35:44;-5.00;99.90
12578;DHT22;6354;51.026;8.968;2022-12-17T15:38:12;-5.00;99.90
12578;DHT22;6354;51.026;8.968;2022-12-17T15:40:40;-5.10;99.90
12578;DHT22;6354;51.026;8.968;2022-12-17T15:43:09;-5.10;99.90
12578;DHT22;6354;51.026;8.968;2022-12-17T15:45:39;-5.20;99.90
12578;DHT22;6354;51.026;8.968;2022-12-17T15:48:08;-5.20;99.90
12578;DHT22;6354;51.026;8.968;2022-12-17T15:50:36;-5.20;99.90
12578;DHT22;6354;51.026;8.968;2022-12-17T15:53:05;-5.30;99.90
12578;DHT22;6354;51.026;8.968;2022-12-17T15:55:33;-5.30;99.90
12578;DHT22;6354;51.026;8.968;2022-12-17T15:58:01;-5.40;99.90
12578;DHT22;6354;51.026;8.968;2022-12-17T16:00:30;-5.40;99.90
12578;DHT22;6354;51.026;8.968;2022-12-17T16:02:59;-5.40;99.90
12578;DHT22;6354;51.026;8.968;2022-12-17T16:05:27;-5.50;99.90
12578;DHT22;6354;51.026;8.968;2022-12-17T16:07:55;-5.50;99.90
12578;DHT22;6354;51.026;8.968;2022-12-17T16:10:25;-5.60;99.90
12578;DHT22;6354;51.026;8.968;2022-12-17T16:12:53;-5.60;99.90
12578;DHT22;6354;51.026;8.968;2022-12-17T16:15:21;-5.70;99.90
12578;DHT22;6354;51.026;8.968;2022-12-17T16:17:49;-5.70;99.90
12578;DHT22;6354;51.026;8.968;2022-12-17T16:20:20;-5.80;99.90
12578;DHT22;6354;51.026;8.968;2022-12-17T16:22:48;-5.80;99.90
12578;DHT22;6354;51.026;8.968;2022-12-17T16:25:16;-5.80;99.90
12578;DHT22;6354;51.026;8.968;2022-12-17T16:27:45;-5.90;99.90
12578;DHT22;6354;51.026;8.968;2022-12-17T16:30:13;-5.90;99.90
12578;DHT22;6354;51.026;8.968;2022-12-17T16:32:41;-5.90;99.90
12578;DHT22;6354;51.026;8.968;2022-12-17T16:35:10;-5.90;99.90
12578;DHT22;6354;51.026;8.968;2022-12-17T16:37:41;-5.90;99.90
12578;DHT22;6354;51.026;8.968;2022-12-17T16:40:10;-6.00;99.90
12578;DHT22;6354;51.026;8.968;2022-12-17T16:42:38;-5.90;99.90
12578;DHT22;6354;51.026;8.968;2022-12-17T16:45:07;-6.00;99.90
12578;DHT22;6354;51.026;8.968;2022-12-17T16:47:35;-6.00;99.90
12578;DHT22;6354;51.026;8.968;2022-12-17T16:50:04;-6.00;99.90
12578;DHT22;6354;51.026;8.968;2022-12-17T16:52:33;-6.00;99.90
12578;DHT22;6354;51.026;8.968;2022-12-17T16:55:02;-6.10;99.90
12578;DHT22;6354;51.026;8.968;2022-12-17T16:57:31;-6.20;99.90
12578;DHT22;6354;51.026;8.968;2022-12-17T16:59:59;-6.20;99.90
12578;DHT22;6354;51.026;8.968;2022-12-17T17:02:27;-6.20;99.90
12578;DHT22;6354;51.026;8.968;2022-12-17T17:04:56;-6.20;99.90
12578;DHT22;6354;51.026;8.968;2022-12-17T17:07:24;-6.30;99.90
12578;DHT22;6354;51.026;8.968;2022-12-17T17:09:52;-6.30;99.90
12578;DHT22;6354;51.026;8.968;2022-12-17T17:12:21;-6.30;99.90
12578;DHT22;6354;51.026;8.968;2022-12-17T17:14:51;-6.30;99.90
12578;DHT22;6354;51.026;8.968;2022-12-17T17:17:20;-6.40;99.90
12578;DHT22;6354;51.026;8.968;2022-12-17T17:20:09;-6.40;99.90
12578;DHT22;6354;51.026;8.968;2022-12-17T17:22:38;-6.50;99.90
12578;DHT22;6354;51.026;8.968;2022-12-17T17:25:06;-6.50;99.90
12578;DHT22;6354;51.026;8.968;2022-12-17T17:27:36;-6.50;99.90
12578;DHT22;6354;51.026;8.968;2022-12-17T17:30:05;-6.60;99.90
12578;DHT22;6354;51.026;8.968;2022-12-17T17:32:33;-6.60;99.90
12578;DHT22;6354;51.026;8.968;2022-12-17T17:35:02;-6.60;99.90